Accueil
METAR-TAF:

METAR-TAF

Aéroports :

Hartness State Airport

Springfield, Vermont, États-Unis

latitude: 43-20-33N, longitude: 072-31-18W, altitude: 175 m

Observation

Le bulletin a été fait il y a 51 minutes, à 09:54 UTC
Vent 3 kt de ouest/sud-ouest
Température -3°C
Humidité 74%
Pression 1018 hPa
Visibilité: 16.1 km
Ciel couvert à une hauteur de 4500 ft

METAR: KVSF 100954Z AUTO 24003KT 10SM OVC045 M03/M07 A3007 RMK AO2 SLP191 T10331072

Heure: 05:45 (10:45 UTC)


TAF: absent

Observations et prévisions météorologiques de plus de 4000 aéroports (messages METAR et TAF).

Les stations disponibles sont représentées par des disques jaunes et rouges sur la carte.

Passer la souris dessus pour voir le nom de la station.

Cliquer dessus pour voir les observations et prévisions météorologiques.

Pour changer de carte: cliquez sur les boutons verts avec une croix noire pour zoomer, sur le bouton vert avec un tiret pour effectuer un zoom arrière, ou sur les flèches vertes pour les cartes adjacentes.


METAR-TAF: